createdAt,value
2019-06-29T00:01:53.057Z,10.60
2019-06-29T00:04:19.401Z,12.10
2019-06-29T00:06:45.756Z,10.30
2019-06-29T00:09:12.112Z,12.70
2019-06-29T00:11:45.256Z,9.83
2019-06-29T00:14:26.937Z,10.00
2019-06-29T00:16:53.630Z,9.13
2019-06-29T00:19:19.930Z,14.27
2019-06-29T00:21:46.301Z,9.03
2019-06-29T00:24:12.585Z,10.80
2019-06-29T00:26:38.896Z,12.73
2019-06-29T00:29:05.218Z,12.73
2019-06-29T00:31:31.877Z,9.40
2019-06-29T00:33:58.391Z,15.13
2019-06-29T00:36:24.863Z,10.60
2019-06-29T00:38:51.577Z,13.93
2019-06-29T00:41:17.936Z,13.63
2019-06-29T00:43:44.261Z,10.30
2019-06-29T00:46:10.627Z,15.83
2019-06-29T00:48:38.051Z,9.47
2019-06-29T00:51:04.377Z,11.83
2019-06-29T00:53:32.270Z,9.90
2019-06-29T00:55:58.566Z,14.13
2019-06-29T00:58:24.901Z,12.70
2019-06-29T01:00:51.500Z,18.30
2019-06-29T01:03:17.859Z,19.97
2019-06-29T01:05:44.206Z,19.33
2019-06-29T01:08:10.667Z,18.60
2019-06-29T01:10:38.016Z,20.60
2019-06-29T01:13:04.450Z,28.37
2019-06-29T01:15:30.789Z,43.50
2019-06-29T01:17:57.119Z,59.40
2019-06-29T01:20:24.645Z,60.27
2019-06-29T01:22:51.266Z,47.37
2019-06-29T01:25:17.757Z,56.17
2019-06-29T01:27:44.087Z,41.17
2019-06-29T01:30:13.436Z,48.43
2019-06-29T01:32:39.837Z,38.50
2019-06-29T01:35:06.893Z,36.80
2019-06-29T01:37:33.593Z,26.80
2019-06-29T01:39:59.935Z,25.30
2019-06-29T01:42:26.294Z,14.07
2019-06-29T01:44:52.621Z,15.67
2019-06-29T01:47:19.975Z,12.33
2019-06-29T01:49:46.306Z,14.37
2019-06-29T01:52:12.664Z,11.20
2019-06-29T01:54:39.003Z,14.67
2019-06-29T01:57:05.747Z,17.80
2019-06-29T01:59:32.079Z,17.30
2019-06-29T02:01:58.434Z,22.23
2019-06-29T02:04:25.142Z,22.80
2019-06-29T02:06:51.487Z,21.03
2019-06-29T02:09:17.859Z,18.83
2019-06-29T02:11:44.559Z,12.77
2019-06-29T02:14:10.912Z,17.53
2019-06-29T02:16:37.243Z,14.50
2019-06-29T02:19:03.723Z,11.13
2019-06-29T02:21:30.489Z,13.73
2019-06-29T02:23:56.884Z,11.53
2019-06-29T02:26:23.564Z,16.13
2019-06-29T02:28:49.958Z,12.57
2019-06-29T02:31:16.261Z,15.60
2019-06-29T02:33:42.621Z,14.57
2019-06-29T02:36:08.985Z,10.53
2019-06-29T02:38:35.412Z,15.17
2019-06-29T02:41:01.845Z,14.37
2019-06-29T02:43:28.231Z,18.13
2019-06-29T02:45:54.656Z,15.63
2019-06-29T02:48:21.065Z,18.07
2019-06-29T02:50:47.433Z,19.70
2019-06-29T02:53:13.814Z,20.60
2019-06-29T02:55:52.037Z,20.40
2019-06-29T02:58:18.356Z,14.90
2019-06-29T03:00:44.775Z,17.50
2019-06-29T03:03:11.140Z,14.77
2019-06-29T03:05:37.444Z,20.07
2019-06-29T03:08:03.785Z,15.33
2019-06-29T03:10:30.110Z,16.90
2019-06-29T03:12:56.452Z,12.63
2019-06-29T03:15:22.797Z,14.20
2019-06-29T03:17:49.219Z,10.83
2019-06-29T03:20:15.690Z,12.70
2019-06-29T03:22:42.005Z,18.20
2019-06-29T03:25:09.681Z,16.13
2019-06-29T03:27:36.127Z,11.83
2019-06-29T03:30:04.722Z,10.80
2019-06-29T03:32:31.079Z,13.03
2019-06-29T03:34:57.414Z,13.77
2019-06-29T03:37:23.771Z,10.63
2019-06-29T03:39:50.111Z,10.83
2019-06-29T03:42:16.427Z,11.63
2019-06-29T03:44:42.844Z,9.13
2019-06-29T03:47:09.160Z,12.17
2019-06-29T03:49:35.527Z,12.87
2019-06-29T03:52:01.856Z,14.50
2019-06-29T03:54:28.226Z,9.90
2019-06-29T03:56:54.527Z,13.80
2019-06-29T03:59:23.395Z,14.80
2019-06-29T04:01:54.039Z,14.33
2019-06-29T04:04:26.116Z,13.30
2019-06-29T04:07:01.081Z,11.97
2019-06-29T04:10:17.124Z,16.50
2019-06-29T04:13:09.893Z,9.27
2019-06-29T04:16:04.837Z,12.13
2019-06-29T04:18:42.497Z,12.73
2019-06-29T04:21:25.378Z,13.80
2019-06-29T04:24:47.457Z,17.43
2019-06-29T04:27:34.638Z,15.23
2019-06-29T04:30:33.599Z,13.33
2019-06-29T04:33:24.949Z,12.83
2019-06-29T04:36:30.368Z,11.07
2019-06-29T04:39:17.077Z,8.77
2019-06-29T04:42:17.746Z,10.00
2019-06-29T04:44:44.079Z,12.17
2019-06-29T04:47:10.406Z,10.90
2019-06-29T04:49:36.881Z,7.90
2019-06-29T04:52:03.797Z,8.27
2019-06-29T04:54:30.223Z,8.80
2019-06-29T04:56:56.550Z,10.23
2019-06-29T04:59:23.831Z,8.37
2019-06-29T05:01:50.161Z,11.13
2019-06-29T05:04:18.852Z,10.20
2019-06-29T05:06:45.248Z,9.20
2019-06-29T05:09:11.591Z,7.37
2019-06-29T05:11:38.092Z,12.40
2019-06-29T05:14:04.683Z,10.17
2019-06-29T05:16:31.325Z,9.37
2019-06-29T05:18:58.718Z,9.63
2019-06-29T05:21:25.232Z,7.33
2019-06-29T05:23:51.634Z,9.97
2019-06-29T05:26:17.986Z,15.43
2019-06-29T05:28:44.419Z,7.23
2019-06-29T05:31:11.228Z,5.47
2019-06-29T05:33:37.583Z,14.03
2019-06-29T05:36:04.194Z,8.90
2019-06-29T05:38:30.954Z,7.93
2019-06-29T05:40:57.300Z,8.67
2019-06-29T05:43:23.740Z,6.70
2019-06-29T05:45:50.168Z,8.67
2019-06-29T05:48:16.613Z,9.73
2019-06-29T05:50:42.939Z,8.20
2019-06-29T05:53:09.245Z,12.60
2019-06-29T05:55:35.579Z,10.80
2019-06-29T05:58:02.029Z,8.03
2019-06-29T06:00:35.679Z,8.00
2019-06-29T06:03:02.150Z,8.83
2019-06-29T06:05:28.702Z,7.63
2019-06-29T06:07:56.098Z,9.13
2019-06-29T06:10:22.614Z,10.30
2019-06-29T06:12:49.201Z,8.47
2019-06-29T06:15:15.509Z,7.63
2019-06-29T06:17:41.874Z,9.00
2019-06-29T06:20:09.164Z,10.13
2019-06-29T06:22:35.580Z,7.20
2019-06-29T06:25:05.828Z,8.50
2019-06-29T06:27:33.532Z,8.30
2019-06-29T06:30:00.208Z,10.83
2019-06-29T06:32:26.750Z,15.60
2019-06-29T06:34:53.113Z,6.30
2019-06-29T06:37:19.486Z,8.07
2019-06-29T06:39:45.883Z,10.43
2019-06-29T06:42:13.859Z,8.17
2019-06-29T06:44:40.371Z,7.57
2019-06-29T06:47:06.745Z,6.30
2019-06-29T06:49:33.110Z,7.17
2019-06-29T06:51:59.443Z,6.60
2019-06-29T06:54:25.866Z,9.40
2019-06-29T06:56:52.155Z,5.50
2019-06-29T06:59:18.547Z,6.23
2019-06-29T07:01:45.098Z,7.03
2019-06-29T07:04:11.424Z,5.47
2019-06-29T07:06:38.771Z,6.63
2019-06-29T07:09:05.518Z,7.73
2019-06-29T07:11:32.315Z,6.77
2019-06-29T07:13:58.687Z,5.50
2019-06-29T07:16:25.026Z,6.00
2019-06-29T07:18:51.690Z,7.30
2019-06-29T07:21:18.272Z,7.00
2019-06-29T07:23:44.687Z,6.00
2019-06-29T07:26:11.028Z,5.80
2019-06-29T07:28:37.413Z,9.23
2019-06-29T07:31:03.743Z,7.43
2019-06-29T07:33:30.369Z,8.73
2019-06-29T07:35:56.718Z,7.03
2019-06-29T07:38:23.064Z,3.90
2019-06-29T07:40:49.737Z,3.80
2019-06-29T07:43:16.072Z,3.60
2019-06-29T07:45:43.500Z,3.73
2019-06-29T07:48:09.899Z,6.43
2019-06-29T07:50:53.551Z,3.83
2019-06-29T07:53:17.664Z,5.67
2019-06-29T07:55:55.255Z,5.23
2019-06-29T07:58:22.360Z,7.17
2019-06-29T08:00:48.887Z,4.33
2019-06-29T08:03:15.562Z,10.53
2019-06-29T08:05:42.497Z,3.83
2019-06-29T08:08:09.175Z,3.97
2019-06-29T08:10:35.562Z,7.90
2019-06-29T08:13:01.939Z,3.60
2019-06-29T08:15:28.417Z,9.40
2019-06-29T08:17:55.116Z,9.03
2019-06-29T08:20:22.455Z,9.60
2019-06-29T08:22:48.876Z,5.80
2019-06-29T08:25:15.932Z,4.80
2019-06-29T08:27:43.492Z,5.57
2019-06-29T08:30:11.271Z,6.20
2019-06-29T08:32:37.664Z,3.60
2019-06-29T08:35:04.372Z,5.77
2019-06-29T08:37:30.670Z,8.90
2019-06-29T08:39:57.072Z,4.40
2019-06-29T08:42:23.504Z,2.50
2019-06-29T08:44:49.846Z,5.57
2019-06-29T08:47:16.169Z,3.53
2019-06-29T08:49:42.474Z,8.70
2019-06-29T08:52:08.858Z,6.33
2019-06-29T08:54:35.170Z,12.20
2019-06-29T08:57:01.512Z,10.20
2019-06-29T08:59:27.838Z,4.90
2019-06-29T09:01:54.550Z,4.83
2019-06-29T09:04:20.919Z,7.97
2019-06-29T09:06:47.264Z,3.53
2019-06-29T09:09:13.647Z,9.13
2019-06-29T09:11:39.979Z,7.00
2019-06-29T09:14:06.412Z,10.17
2019-06-29T09:16:32.743Z,3.73
2019-06-29T09:18:59.080Z,5.20
2019-06-29T09:21:25.454Z,4.63
2019-06-29T09:23:51.779Z,5.13
2019-06-29T09:26:18.224Z,4.33
2019-06-29T09:28:44.878Z,4.87
2019-06-29T09:31:11.886Z,3.50
2019-06-29T09:33:38.417Z,5.97
2019-06-29T09:36:05.045Z,6.53
2019-06-29T09:38:32.365Z,4.80
2019-06-29T09:41:01.731Z,5.20
2019-06-29T09:43:28.238Z,5.20
2019-06-29T09:45:54.598Z,7.90
2019-06-29T09:48:21.472Z,11.10
2019-06-29T09:50:47.997Z,8.40
2019-06-29T09:53:14.328Z,9.40
2019-06-29T09:55:41.568Z,6.13
2019-06-29T09:58:08.179Z,3.30
2019-06-29T10:00:35.234Z,10.17
2019-06-29T10:03:02.208Z,12.60
2019-06-29T10:05:28.890Z,4.70
2019-06-29T10:07:55.222Z,4.50
2019-06-29T10:10:22.426Z,6.20
2019-06-29T10:12:48.943Z,11.73
2019-06-29T10:15:16.263Z,5.03
2019-06-29T10:17:45.402Z,6.83
2019-06-29T10:20:12.219Z,5.20
2019-06-29T10:22:38.567Z,5.23
2019-06-29T10:25:05.522Z,6.10
2019-06-29T10:27:31.976Z,6.00
2019-06-29T10:29:58.614Z,7.60
2019-06-29T10:32:25.265Z,7.17
2019-06-29T10:34:51.833Z,5.23
2019-06-29T10:37:18.301Z,4.20
2019-06-29T10:39:44.674Z,6.70
2019-06-29T10:42:12.171Z,4.83
2019-06-29T10:44:38.733Z,2.53
2019-06-29T10:47:05.095Z,3.93
2019-06-29T10:49:32.146Z,5.47
2019-06-29T10:51:58.681Z,4.40
2019-06-29T10:54:26.097Z,3.70
2019-06-29T10:56:52.480Z,4.30
2019-06-29T10:59:18.826Z,10.40
2019-06-29T11:01:45.169Z,5.80
2019-06-29T11:04:12.671Z,2.70
2019-06-29T11:06:39.256Z,4.03
2019-06-29T11:09:05.595Z,3.23
2019-06-29T11:11:42.156Z,4.67
2019-06-29T11:14:01.854Z,6.83
2019-06-29T11:16:28.401Z,7.13
2019-06-29T11:18:54.729Z,3.10
2019-06-29T11:21:21.116Z,3.20
2019-06-29T11:23:47.572Z,3.33
2019-06-29T11:26:20.942Z,4.43
2019-06-29T11:28:43.184Z,3.87
2019-06-29T11:31:15.314Z,4.50
2019-06-29T11:33:39.244Z,7.63
2019-06-29T11:36:06.377Z,4.23
2019-06-29T11:38:33.130Z,1.97
2019-06-29T11:41:01.397Z,2.90
2019-06-29T11:43:27.742Z,4.50
2019-06-29T11:45:54.080Z,3.47
2019-06-29T11:48:21.440Z,4.63
2019-06-29T11:50:47.947Z,5.10
2019-06-29T11:53:14.451Z,2.33
2019-06-29T11:55:42.491Z,5.00
2019-06-29T11:58:09.121Z,5.17
2019-06-29T12:00:46.802Z,3.60
2019-06-29T12:03:03.741Z,4.13
2019-06-29T12:05:32.558Z,3.40
2019-06-29T12:07:58.441Z,3.10
2019-06-29T12:10:25.127Z,3.90
2019-06-29T12:12:52.910Z,3.33
2019-06-29T12:15:21.817Z,1.90
2019-06-29T12:17:48.014Z,5.33
2019-06-29T12:20:14.599Z,4.60
2019-06-29T12:22:41.851Z,6.27
2019-06-29T12:25:08.854Z,1.77
2019-06-29T12:27:35.197Z,2.20
2019-06-29T12:30:02.386Z,1.60
2019-06-29T12:32:32.756Z,5.60
2019-06-29T12:35:01.361Z,2.40
2019-06-29T12:37:27.371Z,3.47
2019-06-29T12:39:53.737Z,1.97
2019-06-29T12:42:21.673Z,2.50
2019-06-29T12:44:48.193Z,1.60
2019-06-29T12:47:16.242Z,2.77
2019-06-29T12:49:42.592Z,5.50
2019-06-29T12:52:12.344Z,3.33
2019-06-29T12:54:38.652Z,1.73
2019-06-29T12:57:06.081Z,1.13
2019-06-29T12:59:32.410Z,1.47
2019-06-29T13:01:58.795Z,2.23
2019-06-29T13:04:25.153Z,1.17
2019-06-29T13:06:52.317Z,1.33
2019-06-29T13:09:18.990Z,1.40
2019-06-29T13:11:45.617Z,1.33
2019-06-29T13:14:12.001Z,2.10
2019-06-29T13:16:39.122Z,1.33
2019-06-29T13:19:05.471Z,1.33
2019-06-29T13:21:31.826Z,1.17
2019-06-29T13:23:58.337Z,1.10
2019-06-29T13:26:24.683Z,1.60
2019-06-29T13:28:51.165Z,1.33
2019-06-29T13:31:17.584Z,1.37
2019-06-29T13:33:44.454Z,1.83
2019-06-29T13:36:12.029Z,1.10
2019-06-29T13:38:38.769Z,0.97
2019-06-29T13:41:05.500Z,1.93
2019-06-29T13:43:32.241Z,1.37
2019-06-29T13:45:59.582Z,2.63
2019-06-29T13:48:25.963Z,1.33
2019-06-29T13:50:52.293Z,1.13
2019-06-29T13:53:18.625Z,2.33
2019-06-29T13:55:44.958Z,0.63
2019-06-29T13:58:11.391Z,1.13
2019-06-29T14:00:37.778Z,1.83
2019-06-29T14:03:04.192Z,0.60
2019-06-29T14:05:30.567Z,0.87
2019-06-29T14:07:57.468Z,2.00
2019-06-29T14:10:24.481Z,1.60
2019-06-29T14:12:50.863Z,1.00
2019-06-29T14:15:17.309Z,2.00
2019-06-29T14:17:44.069Z,0.70
2019-06-29T14:20:10.426Z,1.00
2019-06-29T14:22:36.780Z,1.30
2019-06-29T14:25:07.893Z,0.90
2019-06-29T14:27:35.382Z,0.60
2019-06-29T14:30:01.703Z,0.80
2019-06-29T14:32:30.120Z,1.30
2019-06-29T14:34:56.488Z,0.90
2019-06-29T14:37:22.815Z,0.73
2019-06-29T14:39:49.551Z,3.60
2019-06-29T14:42:16.275Z,1.13
2019-06-29T14:44:44.104Z,1.03
2019-06-29T14:47:10.655Z,4.43
2019-06-29T14:49:37.008Z,0.80
2019-06-29T14:52:04.339Z,0.70
2019-06-29T14:54:31.415Z,1.97
2019-06-29T14:56:57.809Z,1.90
2019-06-29T14:59:24.248Z,1.40
2019-06-29T15:01:50.560Z,0.80
2019-06-29T15:04:18.032Z,0.93
2019-06-29T15:06:44.807Z,1.27
2019-06-29T15:09:11.200Z,1.00
2019-06-29T15:11:37.545Z,1.00
2019-06-29T15:14:03.886Z,1.63
2019-06-29T15:16:30.335Z,6.60
2019-06-29T15:18:56.801Z,1.25
2019-06-29T15:21:23.134Z,0.60
2019-06-29T15:23:49.462Z,1.13
2019-06-29T15:26:15.782Z,7.03
2019-06-29T15:28:42.179Z,0.70
2019-06-29T15:31:08.818Z,0.80
2019-06-29T15:33:35.169Z,1.13
2019-06-29T15:36:01.565Z,2.80
2019-06-29T15:38:28.245Z,2.13
2019-06-29T15:40:54.664Z,0.83
2019-06-29T15:43:21.416Z,0.80
2019-06-29T15:45:48.185Z,1.20
2019-06-29T15:48:14.497Z,1.60
2019-06-29T15:50:40.885Z,5.20
2019-06-29T15:53:07.201Z,4.93
2019-06-29T15:55:33.543Z,1.03
2019-06-29T15:57:59.854Z,1.47
2019-06-29T16:00:26.204Z,1.47
2019-06-29T16:03:05.019Z,1.97
2019-06-29T16:05:20.766Z,0.80
2019-06-29T16:07:47.385Z,1.10
2019-06-29T16:10:14.333Z,1.00
2019-06-29T16:12:40.720Z,1.87
2019-06-29T16:15:07.268Z,2.37
2019-06-29T16:17:33.940Z,3.37
2019-06-29T16:20:00.268Z,1.63
2019-06-29T16:22:28.032Z,1.27
2019-06-29T16:24:54.469Z,1.70
2019-06-29T16:27:20.857Z,1.20
2019-06-29T16:29:47.257Z,2.00
2019-06-29T16:32:13.583Z,3.03
2019-06-29T16:34:39.931Z,0.80
2019-06-29T16:37:06.265Z,0.97
2019-06-29T16:39:32.577Z,2.30
2019-06-29T16:41:58.943Z,0.80
2019-06-29T16:44:28.291Z,1.50
2019-06-29T16:46:53.910Z,2.50
2019-06-29T16:49:20.240Z,3.17
2019-06-29T16:51:46.764Z,1.83
2019-06-29T16:54:14.143Z,1.07
2019-06-29T16:56:40.536Z,1.60
2019-06-29T16:59:07.231Z,1.50
2019-06-29T17:01:34.558Z,2.03
2019-06-29T17:04:01.184Z,2.00
2019-06-29T17:06:27.568Z,1.47
2019-06-29T17:08:53.910Z,1.97
2019-06-29T17:11:20.339Z,1.50
2019-06-29T17:13:46.826Z,1.93
2019-06-29T17:16:13.706Z,5.07
2019-06-29T17:18:40.373Z,3.43
2019-06-29T17:21:06.875Z,1.50
2019-06-29T17:23:33.217Z,1.63
2019-06-29T17:25:59.567Z,0.90
2019-06-29T17:28:25.906Z,2.10
2019-06-29T17:30:53.262Z,1.90
2019-06-29T17:33:19.632Z,3.60
2019-06-29T17:35:46.467Z,4.20
2019-06-29T17:38:12.803Z,1.77
2019-06-29T17:40:39.167Z,2.50
2019-06-29T17:43:05.654Z,2.73
2019-06-29T17:45:32.318Z,2.17
2019-06-29T17:47:58.869Z,2.40
2019-06-29T17:50:25.200Z,2.70
2019-06-29T17:52:51.904Z,4.20
2019-06-29T17:55:18.339Z,3.10
2019-06-29T17:57:44.704Z,2.90
2019-06-29T18:00:11.768Z,2.03
2019-06-29T18:02:38.133Z,2.20
2019-06-29T18:05:05.459Z,4.10
2019-06-29T18:07:32.167Z,7.97
2019-06-29T18:09:58.495Z,5.30
2019-06-29T18:12:25.340Z,3.80
2019-06-29T18:14:52.041Z,3.30
2019-06-29T18:17:18.430Z,6.20
2019-06-29T18:19:44.841Z,3.33
2019-06-29T18:22:11.975Z,6.53
2019-06-29T18:24:38.648Z,3.10
2019-06-29T18:27:05.220Z,5.80
2019-06-29T18:29:31.909Z,8.37
2019-06-29T18:31:58.281Z,8.33
2019-06-29T18:34:26.733Z,17.70
2019-06-29T18:36:52.960Z,6.40
2019-06-29T18:39:19.290Z,8.87
2019-06-29T18:41:46.021Z,9.17
2019-06-29T18:44:12.402Z,5.87
2019-06-29T18:46:39.087Z,3.67
2019-06-29T18:49:05.504Z,4.37
2019-06-29T18:51:31.852Z,8.27
2019-06-29T18:53:58.327Z,4.73
2019-06-29T18:56:24.636Z,7.07
2019-06-29T18:58:51.051Z,9.10
2019-06-29T19:01:17.380Z,5.80
2019-06-29T19:03:44.134Z,4.57
2019-06-29T19:06:10.453Z,10.07
2019-06-29T19:08:36.806Z,10.40
2019-06-29T19:11:04.459Z,7.83
2019-06-29T19:13:31.084Z,8.03
2019-06-29T19:15:57.543Z,9.43
2019-06-29T19:18:23.922Z,7.40
2019-06-29T19:20:50.251Z,10.33
2019-06-29T19:23:16.615Z,11.27
2019-06-29T19:25:42.951Z,11.60
2019-06-29T19:28:09.352Z,8.03
2019-06-29T19:30:36.029Z,3.23
2019-06-29T19:33:02.410Z,6.90
2019-06-29T19:35:28.727Z,7.03
2019-06-29T19:37:55.376Z,6.47
2019-06-29T19:40:22.104Z,9.43
2019-06-29T19:42:48.775Z,8.43
2019-06-29T19:45:15.544Z,10.13
2019-06-29T19:47:42.193Z,6.77
2019-06-29T19:50:08.649Z,7.20
2019-06-29T19:52:35.478Z,13.90
2019-06-29T19:55:02.024Z,9.00
2019-06-29T19:57:28.351Z,12.27
2019-06-29T19:59:54.837Z,12.43
2019-06-29T20:02:21.515Z,16.70
2019-06-29T20:04:48.844Z,13.57
2019-06-29T20:07:15.392Z,11.67
2019-06-29T20:09:42.049Z,19.00
2019-06-29T20:12:08.385Z,16.63
2019-06-29T20:14:35.045Z,21.50
2019-06-29T20:17:02.657Z,13.63
2019-06-29T20:19:28.965Z,13.90
2019-06-29T20:21:55.304Z,11.30
2019-06-29T20:24:21.635Z,12.30
2019-06-29T20:26:47.991Z,13.03
2019-06-29T20:29:14.324Z,19.97
2019-06-29T20:31:40.924Z,21.90
2019-06-29T20:34:07.471Z,12.80
2019-06-29T20:36:33.839Z,7.07
2019-06-29T20:39:01.339Z,12.67
2019-06-29T20:41:29.910Z,9.30
2019-06-29T20:43:56.281Z,13.93
2019-06-29T20:46:22.673Z,11.67
2019-06-29T20:48:49.028Z,7.90
2019-06-29T20:51:15.390Z,9.80
2019-06-29T20:53:41.782Z,14.23
2019-06-29T20:56:08.153Z,7.80
2019-06-29T20:58:34.487Z,9.77
2019-06-29T21:01:00.865Z,10.40
2019-06-29T21:03:27.643Z,5.67
2019-06-29T21:05:54.362Z,7.70
2019-06-29T21:08:20.699Z,10.20
2019-06-29T21:10:47.116Z,10.27
2019-06-29T21:13:13.483Z,12.27
2019-06-29T21:15:39.978Z,12.50
2019-06-29T21:18:06.329Z,11.60
2019-06-29T21:20:32.693Z,12.17
2019-06-29T21:22:59.084Z,11.30
2019-06-29T21:25:25.773Z,15.10
2019-06-29T21:27:53.179Z,11.10
2019-06-29T21:30:21.199Z,12.20
2019-06-29T21:33:03.188Z,11.67
2019-06-29T21:35:29.524Z,15.70
2019-06-29T21:37:57.503Z,11.60
2019-06-29T21:40:24.271Z,10.50
2019-06-29T21:42:50.850Z,10.70
2019-06-29T21:45:17.708Z,10.00
2019-06-29T21:47:44.115Z,20.57
2019-06-29T21:50:11.542Z,21.87
2019-06-29T21:52:38.578Z,21.00
2019-06-29T21:55:05.530Z,13.27
2019-06-29T21:57:31.978Z,18.20
2019-06-29T21:59:58.939Z,18.17
2019-06-29T22:02:26.510Z,18.10
2019-06-29T22:04:52.871Z,28.10
2019-06-29T22:07:19.209Z,18.77
2019-06-29T22:09:45.597Z,12.73
2019-06-29T22:12:11.942Z,13.73
2019-06-29T22:14:38.567Z,13.90
2019-06-29T22:17:05.103Z,14.00
2019-06-29T22:19:32.562Z,12.40
2019-06-29T22:22:00.221Z,11.50
2019-06-29T22:24:26.658Z,9.83
2019-06-29T22:26:52.986Z,8.07
2019-06-29T22:29:19.334Z,9.53
2019-06-29T22:31:45.639Z,8.93
2019-06-29T22:34:12.472Z,12.77
2019-06-29T22:36:38.821Z,14.67
2019-06-29T22:39:05.294Z,19.37
2019-06-29T22:41:32.386Z,15.67
2019-06-29T22:43:59.014Z,10.87
2019-06-29T22:46:25.821Z,11.27
2019-06-29T22:48:52.483Z,13.80
2019-06-29T22:51:18.847Z,23.53
2019-06-29T22:53:45.549Z,20.40
2019-06-29T22:56:11.910Z,11.33
2019-06-29T22:58:38.246Z,17.73
2019-06-29T23:01:04.582Z,10.70
2019-06-29T23:03:30.934Z,9.97
2019-06-29T23:05:57.280Z,12.73
2019-06-29T23:08:23.674Z,59.33
2019-06-29T23:10:50.046Z,37.67
2019-06-29T23:13:16.378Z,19.53
2019-06-29T23:15:42.786Z,14.87
2019-06-29T23:18:09.199Z,12.63
2019-06-29T23:20:37.450Z,14.00
2019-06-29T23:23:04.006Z,11.87
2019-06-29T23:25:30.523Z,16.50
2019-06-29T23:27:56.895Z,18.47
2019-06-29T23:30:23.556Z,14.47
2019-06-29T23:32:50.363Z,12.07
2019-06-29T23:35:17.144Z,14.43
2019-06-29T23:37:43.474Z,12.20
2019-06-29T23:40:11.328Z,9.47
2019-06-29T23:42:37.674Z,11.97
2019-06-29T23:45:04.762Z,19.33
2019-06-29T23:47:31.104Z,11.00
2019-06-29T23:49:57.548Z,17.23
2019-06-29T23:52:23.869Z,17.30
2019-06-29T23:54:50.509Z,14.73
2019-06-29T23:57:16.942Z,11.83
2019-06-29T23:59:43.297Z,10.27
